Time;durP1;ratioP1;P1;durP2;ratioP2;P2;SDS_P1;SDS_P2;PMS_P1;PMS_P2;Temp;Humidity;BMP_temperature;BMP_pressure;BME280_temperature;BME280_humidity;BME280_pressure;Samples;Min_cycle;Max_cycle;Signal;HPM_P1;HPM_P2
2024/03/07 00:00:16;;;;;;;85.30;25.83;;;;;;;;;;4998184;28;20462;-70
2024/03/07 00:02:45;;;;;;;88.37;24.70;;;;;;;;;;5002833;28;20458;-70
2024/03/07 00:05:13;;;;;;;84.30;24.17;;;;;;;;;;5002971;28;20461;-70
2024/03/07 00:07:40;;;;;;;89.63;24.97;;;;;;;;;;5001063;28;20834;-70
2024/03/07 00:10:09;;;;;;;80.93;22.00;;;;;;;;;;4996891;28;20462;-70
2024/03/07 00:12:36;;;;;;;81.50;20.83;;;;;;;;;;4996235;28;20448;-70
2024/03/07 00:15:04;;;;;;;80.27;22.33;;;;;;;;;;4992650;28;20454;-70
2024/03/07 00:17:31;;;;;;;84.87;23.60;;;;;;;;;;4992593;28;20854;-70
2024/03/07 00:19:59;;;;;;;86.27;25.90;;;;;;;;;;5003315;28;20449;-70
2024/03/07 00:22:29;;;;;;;95.27;25.57;;;;;;;;;;4997294;28;20447;-70
2024/03/07 00:24:57;;;;;;;85.17;23.33;;;;;;;;;;4990946;28;20550;-70
2024/03/07 00:27:26;;;;;;;84.07;23.97;;;;;;;;;;4991174;28;20486;-70
2024/03/07 00:29:53;;;;;;;83.10;21.53;;;;;;;;;;4999705;28;21028;-70
2024/03/07 00:32:21;;;;;;;86.40;23.43;;;;;;;;;;4990641;28;20455;-70
2024/03/07 00:34:48;;;;;;;86.67;24.93;;;;;;;;;;4990386;28;20455;-70
2024/03/07 00:37:17;;;;;;;84.10;22.67;;;;;;;;;;4991181;28;20514;-70
2024/03/07 00:39:44;;;;;;;82.50;23.87;;;;;;;;;;5008793;28;20530;-70
2024/03/07 00:42:11;;;;;;;81.67;22.50;;;;;;;;;;4998415;28;20479;-70
2024/03/07 00:44:38;;;;;;;82.70;23.00;;;;;;;;;;5006843;28;20450;-70
2024/03/07 00:47:06;;;;;;;81.83;22.30;;;;;;;;;;5010746;28;20469;-70
2024/03/07 00:49:33;;;;;;;87.07;24.57;;;;;;;;;;5010952;28;20453;-70
2024/03/07 00:52:00;;;;;;;83.67;23.00;;;;;;;;;;4991887;28;20805;-70
2024/03/07 00:54:29;;;;;;;86.30;23.40;;;;;;;;;;4991470;28;20447;-70
2024/03/07 00:56:56;;;;;;;85.10;23.10;;;;;;;;;;4992041;28;20491;-70
2024/03/07 00:59:23;;;;;;;82.80;22.07;;;;;;;;;;4991566;28;20464;-70
2024/03/07 01:01:50;;;;;;;83.67;22.87;;;;;;;;;;4991583;28;20452;-70
2024/03/07 01:04:18;;;;;;;85.13;23.00;;;;;;;;;;4991641;28;20801;-70
2024/03/07 01:06:45;;;;;;;84.47;23.30;;;;;;;;;;4990824;28;20472;-70
2024/03/07 01:09:16;;;;;;;82.77;22.57;;;;;;;;;;4991278;28;20456;-70
2024/03/07 01:11:45;;;;;;;87.77;23.77;;;;;;;;;;4991433;28;20465;-70
2024/03/07 01:14:13;;;;;;;84.80;24.03;;;;;;;;;;4991415;28;20456;-70
2024/03/07 01:16:40;;;;;;;86.27;23.50;;;;;;;;;;4991101;28;20492;-70
2024/03/07 01:19:08;;;;;;;83.27;22.77;;;;;;;;;;4991635;28;20471;-70
2024/03/07 01:21:35;;;;;;;89.90;23.53;;;;;;;;;;4998910;28;20462;-70
2024/03/07 01:24:02;;;;;;;85.77;24.17;;;;;;;;;;4991573;28;20727;-70
2024/03/07 01:26:29;;;;;;;81.67;21.03;;;;;;;;;;4991444;28;21001;-70
2024/03/07 01:28:59;;;;;;;84.20;22.73;;;;;;;;;;4991603;28;20454;-70
2024/03/07 01:31:26;;;;;;;90.13;23.07;;;;;;;;;;4991524;28;20455;-71
2024/03/07 01:33:53;;;;;;;91.03;24.80;;;;;;;;;;4991425;28;20462;-70
2024/03/07 01:36:21;;;;;;;89.27;24.50;;;;;;;;;;4991020;28;20530;-70
2024/03/07 01:38:48;;;;;;;89.73;24.37;;;;;;;;;;4991169;28;20497;-70
2024/03/07 01:41:15;;;;;;;87.33;23.90;;;;;;;;;;4991309;28;20554;-70
2024/03/07 01:43:42;;;;;;;97.90;26.60;;;;;;;;;;4991511;28;20605;-70
2024/03/07 01:46:11;;;;;;;96.53;25.93;;;;;;;;;;4991587;28;20482;-70
2024/03/07 01:48:40;;;;;;;86.10;21.97;;;;;;;;;;4991571;28;20454;-70
2024/03/07 01:51:08;;;;;;;88.70;25.07;;;;;;;;;;4990899;28;20534;-68
2024/03/07 01:53:36;;;;;;;89.43;25.17;;;;;;;;;;4990407;28;20455;-68
2024/03/07 01:56:04;;;;;;;89.43;26.27;;;;;;;;;;4992117;28;20447;-68
2024/03/07 01:58:32;;;;;;;91.93;26.77;;;;;;;;;;4995053;28;20490;-68
2024/03/07 02:00:59;;;;;;;90.50;27.77;;;;;;;;;;4994256;28;20952;-68
2024/03/07 02:03:28;;;;;;;93.80;27.87;;;;;;;;;;4994738;28;20462;-68
2024/03/07 02:05:55;;;;;;;96.93;30.02;;;;;;;;;;5002672;28;20465;-68
2024/03/07 02:08:22;;;;;;;98.32;30.10;;;;;;;;;;4994639;28;20197;-68
2024/03/07 02:10:49;;;;;;;99.27;29.73;;;;;;;;;;5002741;28;20218;-69
2024/03/07 02:13:16;;;;;;;96.10;28.83;;;;;;;;;;4994982;28;20876;-68
2024/03/07 02:15:43;;;;;;;92.47;28.27;;;;;;;;;;4993930;28;20450;-68
2024/03/07 02:18:11;;;;;;;95.63;29.70;;;;;;;;;;5002273;28;20227;-68
2024/03/07 02:20:39;;;;;;;95.65;27.30;;;;;;;;;;4994255;28;20204;-68
2024/03/07 02:23:08;;;;;;;94.13;26.90;;;;;;;;;;4994230;28;20204;-68
2024/03/07 02:25:37;;;;;;;96.20;28.65;;;;;;;;;;4994032;28;20213;-68
2024/03/07 02:28:05;;;;;;;96.30;28.63;;;;;;;;;;5005451;28;20269;-68
2024/03/07 02:30:32;;;;;;;95.50;30.10;;;;;;;;;;5014246;28;20733;-68
2024/03/07 02:33:06;;;;;;;92.25;26.35;;;;;;;;;;5014376;28;20208;-68
2024/03/07 02:35:34;;;;;;;94.97;26.38;;;;;;;;;;5013482;28;20210;-68
2024/03/07 02:38:01;;;;;;;94.47;27.30;;;;;;;;;;4996679;28;20654;-68
2024/03/07 02:40:30;;;;;;;92.53;26.52;;;;;;;;;;5002266;28;20215;-68
2024/03/07 02:42:57;;;;;;;93.30;27.95;;;;;;;;;;5003614;28;20221;-68
2024/03/07 02:45:25;;;;;;;95.20;28.17;;;;;;;;;;5004393;28;20630;-68
2024/03/07 02:47:53;;;;;;;93.47;26.58;;;;;;;;;;5013862;28;20270;-68
2024/03/07 02:50:22;;;;;;;97.35;28.27;;;;;;;;;;5013740;28;20583;-68
2024/03/07 02:52:49;;;;;;;94.55;26.40;;;;;;;;;;5013756;28;20211;-68
2024/03/07 02:55:16;;;;;;;94.20;28.02;;;;;;;;;;5013423;28;20579;-68
2024/03/07 02:57:45;;;;;;;90.35;25.38;;;;;;;;;;5005717;28;20238;-68
2024/03/07 03:00:20;;;;;;;92.15;25.17;;;;;;;;;;4997729;28;20215;-68
2024/03/07 03:02:48;;;;;;;98.88;27.45;;;;;;;;;;5013660;28;20214;-68
2024/03/07 03:05:15;;;;;;;96.03;28.20;;;;;;;;;;5013303;28;20215;-68
2024/03/07 03:07:42;;;;;;;98.75;29.80;;;;;;;;;;5012215;28;20231;-68
2024/03/07 03:10:10;;;;;;;90.20;25.55;;;;;;;;;;4999991;28;20207;-67
2024/03/07 03:12:38;;;;;;;92.82;27.58;;;;;;;;;;4993961;28;20206;-68
2024/03/07 03:15:09;;;;;;;93.70;27.05;;;;;;;;;;4993634;28;20208;-68
2024/03/07 03:17:37;;;;;;;93.40;27.42;;;;;;;;;;4993497;28;20240;-68
2024/03/07 03:20:14;;;;;;;100.60;28.38;;;;;;;;;;4992743;28;20226;-68
2024/03/07 03:22:43;;;;;;;90.18;26.98;;;;;;;;;;4993848;28;20207;-68
2024/03/07 03:25:10;;;;;;;94.60;27.80;;;;;;;;;;4993058;28;20610;-68
2024/03/07 03:27:38;;;;;;;95.82;27.60;;;;;;;;;;4993239;28;20271;-68
2024/03/07 03:30:13;;;;;;;95.45;27.10;;;;;;;;;;4993391;28;20204;-68
2024/03/07 03:32:40;;;;;;;104.18;29.60;;;;;;;;;;4992952;28;20749;-68
2024/03/07 03:35:07;;;;;;;97.70;28.00;;;;;;;;;;4992907;28;20220;-68
2024/03/07 03:37:35;;;;;;;97.25;28.15;;;;;;;;;;4993235;28;20246;-68
2024/03/07 03:40:04;;;;;;;106.47;29.42;;;;;;;;;;4993379;28;20234;-68
2024/03/07 03:42:31;;;;;;;93.10;25.75;;;;;;;;;;4993049;28;20246;-68
2024/03/07 03:44:59;;;;;;;102.18;31.85;;;;;;;;;;4994671;28;20210;-68
2024/03/07 03:47:28;;;;;;;96.50;28.10;;;;;;;;;;5012515;28;20497;-68
2024/03/07 03:49:55;;;;;;;94.95;28.83;;;;;;;;;;5011974;28;20301;-68
2024/03/07 03:52:22;;;;;;;101.10;29.38;;;;;;;;;;5005723;28;20203;-70
2024/03/07 03:54:49;;;;;;;100.50;30.00;;;;;;;;;;5012501;28;20301;-71
2024/03/07 03:57:18;;;;;;;106.57;31.35;;;;;;;;;;5012749;28;20593;-71
2024/03/07 03:59:45;;;;;;;107.18;30.98;;;;;;;;;;4996799;28;20242;-71
2024/03/07 04:02:12;;;;;;;107.70;32.28;;;;;;;;;;5004332;28;20207;-68
2024/03/07 04:04:41;;;;;;;103.70;31.75;;;;;;;;;;5005796;28;20210;-68
2024/03/07 04:07:08;;;;;;;105.15;30.27;;;;;;;;;;4993093;28;20237;-70
2024/03/07 04:09:36;;;;;;;110.70;31.35;;;;;;;;;;4999202;28;20205;-70
2024/03/07 04:12:03;;;;;;;106.75;30.33;;;;;;;;;;4994336;28;20261;-70
2024/03/07 04:14:32;;;;;;;110.32;32.05;;;;;;;;;;4998290;28;20560;-68
2024/03/07 04:16:59;;;;;;;105.72;28.60;;;;;;;;;;5003671;28;20237;-68
2024/03/07 04:19:26;;;;;;;103.95;29.05;;;;;;;;;;5011840;28;20701;-70
2024/03/07 04:21:55;;;;;;;98.53;29.05;;;;;;;;;;5012101;28;20624;-70
2024/03/07 04:24:23;;;;;;;105.75;29.50;;;;;;;;;;4999781;28;20246;-70
2024/03/07 04:26:51;;;;;;;103.63;31.73;;;;;;;;;;5011735;28;20231;-71
2024/03/07 04:29:19;;;;;;;99.82;30.90;;;;;;;;;;5011823;28;20209;-71
2024/03/07 04:31:46;;;;;;;104.60;31.42;;;;;;;;;;5012211;28;20231;-70
2024/03/07 04:34:13;;;;;;;55.88;2.90;;;;;;;;;;5008818;28;20218;-70
2024/03/07 04:36:41;;;;;;;57.25;5.65;;;;;;;;;;5007272;28;20233;-70
2024/03/07 04:39:24;;;;;;;99.35;30.50;;;;;;;;;;5011949;28;20263;-70
2024/03/07 04:41:52;;;;;;;104.57;29.55;;;;;;;;;;4998449;28;20657;-70
2024/03/07 04:44:22;;;;;;;102.75;28.50;;;;;;;;;;4996527;28;20547;-70
2024/03/07 04:46:49;;;;;;;100.47;29.65;;;;;;;;;;5011674;28;20249;-70
2024/03/07 04:49:16;;;;;;;104.90;32.03;;;;;;;;;;5008349;28;20209;-70
2024/03/07 04:51:43;;;;;;;100.72;30.80;;;;;;;;;;5000306;28;20210;-70
2024/03/07 04:54:12;;;;;;;107.25;29.02;;;;;;;;;;4994852;28;20212;-70
2024/03/07 04:56:39;;;;;;;108.68;31.52;;;;;;;;;;5004883;28;20258;-70
2024/03/07 04:59:06;;;;;;;104.72;34.42;;;;;;;;;;4993995;28;20270;-70
2024/03/07 05:01:33;;;;;;;104.53;32.38;;;;;;;;;;4999554;28;20207;-70
2024/03/07 05:04:00;;;;;;;104.93;33.15;;;;;;;;;;5009416;28;20220;-70
2024/03/07 05:06:28;;;;;;;102.97;29.20;;;;;;;;;;5011750;28;20592;-70
2024/03/07 05:08:56;;;;;;;104.38;31.00;;;;;;;;;;5011811;28;20297;-70
2024/03/07 05:11:24;;;;;;;92.72;26.90;;;;;;;;;;5011820;28;20206;-70
2024/03/07 05:13:51;;;;;;;97.10;29.75;;;;;;;;;;5011495;28;20670;-70
2024/03/07 05:16:19;;;;;;;96.55;27.27;;;;;;;;;;4984221;28;20277;-70
2024/03/07 05:18:46;;;;;;;98.60;27.98;;;;;;;;;;4991954;28;20699;-70
2024/03/07 05:23:59;;;;;;;101.20;30.52;;;;;;;;;;4992077;28;20634;-70
2024/03/07 05:26:27;;;;;;;95.22;28.08;;;;;;;;;;4991999;28;20238;-70
2024/03/07 05:28:54;;;;;;;97.95;29.80;;;;;;;;;;4991527;28;20207;-70
2024/03/07 05:31:22;;;;;;;98.45;28.98;;;;;;;;;;4993465;28;20204;-70
2024/03/07 05:33:49;;;;;;;103.57;32.13;;;;;;;;;;4995985;28;20210;-70
2024/03/07 05:36:16;;;;;;;97.70;27.48;;;;;;;;;;4995428;28;20234;-70
2024/03/07 05:38:44;;;;;;;100.53;29.83;;;;;;;;;;4995959;28;20725;-70
2024/03/07 05:41:12;;;;;;;94.35;27.98;;;;;;;;;;4995724;28;20273;-70
2024/03/07 05:43:41;;;;;;;91.78;27.80;;;;;;;;;;4995703;28;20583;-70
2024/03/07 05:46:09;;;;;;;97.68;29.80;;;;;;;;;;4995680;28;20321;-70
2024/03/07 05:48:37;;;;;;;96.70;29.77;;;;;;;;;;4996084;28;20263;-70
2024/03/07 05:51:04;;;;;;;99.95;29.10;;;;;;;;;;4995888;28;20215;-70
2024/03/07 05:53:31;;;;;;;101.20;31.52;;;;;;;;;;4995854;28;20206;-70
2024/03/07 05:55:58;;;;;;;104.93;30.58;;;;;;;;;;4995388;28;20232;-70
2024/03/07 05:58:26;;;;;;;99.97;27.48;;;;;;;;;;4995682;28;20224;-70
2024/03/07 06:00:55;;;;;;;96.50;27.02;;;;;;;;;;4995433;28;20214;-70
2024/03/07 06:03:24;;;;;;;94.50;28.50;;;;;;;;;;4987846;28;20216;-70
2024/03/07 06:05:51;;;;;;;100.25;29.33;;;;;;;;;;4995378;28;20218;-70
2024/03/07 06:08:19;;;;;;;98.70;29.48;;;;;;;;;;4995504;28;20207;-70
2024/03/07 06:10:47;;;;;;;94.97;26.38;;;;;;;;;;4995336;28;20211;-70
2024/03/07 06:13:16;;;;;;;101.35;30.40;;;;;;;;;;4995086;28;20585;-70
2024/03/07 06:15:45;;;;;;;93.07;27.85;;;;;;;;;;4995365;28;20210;-70
2024/03/07 06:18:14;;;;;;;99.70;27.88;;;;;;;;;;4994975;28;20211;-70
2024/03/07 06:20:41;;;;;;;96.60;29.27;;;;;;;;;;4995179;28;20220;-70
2024/03/07 06:23:10;;;;;;;100.25;29.40;;;;;;;;;;4995010;28;20211;-70
2024/03/07 06:25:37;;;;;;;95.60;26.92;;;;;;;;;;5008761;28;20239;-70
2024/03/07 06:28:10;;;;;;;97.38;28.10;;;;;;;;;;5014396;28;20231;-70
2024/03/07 06:30:38;;;;;;;103.53;28.88;;;;;;;;;;5014421;28;20202;-70
2024/03/07 06:33:05;;;;;;;99.90;28.13;;;;;;;;;;5014572;28;20214;-70
2024/03/07 06:35:36;;;;;;;164.73;32.47;;;;;;;;;;5014384;28;20207;-70
2024/03/07 06:38:04;;;;;;;98.85;26.73;;;;;;;;;;4996466;28;20238;-70
2024/03/07 06:40:32;;;;;;;97.35;25.88;;;;;;;;;;5002965;28;20214;-71
2024/03/07 06:42:59;;;;;;;130.25;38.13;;;;;;;;;;5010665;28;20242;-70
2024/03/07 06:45:26;;;;;;;112.47;31.08;;;;;;;;;;5014237;28;20210;-69
2024/03/07 06:47:53;;;;;;;149.20;37.28;;;;;;;;;;4998294;28;20230;-70
2024/03/07 06:50:21;;;;;;;106.97;29.63;;;;;;;;;;4994556;28;20584;-70
2024/03/07 06:52:50;;;;;;;103.70;28.85;;;;;;;;;;4994461;28;20215;-69
2024/03/07 06:55:18;;;;;;;95.38;26.20;;;;;;;;;;4994493;28;20217;-70
2024/03/07 06:57:45;;;;;;;115.00;30.40;;;;;;;;;;4994668;28;20230;-70
2024/03/07 07:00:12;;;;;;;138.82;26.77;;;;;;;;;;4994240;28;20232;-70
2024/03/07 07:02:40;;;;;;;112.95;26.48;;;;;;;;;;4994444;28;20208;-70
2024/03/07 07:05:10;;;;;;;121.93;26.75;;;;;;;;;;4993928;28;20210;-70
2024/03/07 07:07:38;;;;;;;96.93;23.90;;;;;;;;;;4994431;28;20583;-70
2024/03/07 07:10:09;;;;;;;87.53;23.02;;;;;;;;;;4994066;28;20221;-70
2024/03/07 07:12:36;;;;;;;105.03;24.05;;;;;;;;;;4993985;28;20213;-70
2024/03/07 07:15:04;;;;;;;105.60;24.58;;;;;;;;;;4993739;28;20218;-70
2024/03/07 07:17:31;;;;;;;137.85;27.13;;;;;;;;;;4993982;28;20226;-70
2024/03/07 07:19:59;;;;;;;93.95;26.35;;;;;;;;;;4993708;28;20231;-70
2024/03/07 07:22:27;;;;;;;103.65;24.98;;;;;;;;;;4994366;28;20208;-70
2024/03/07 07:24:54;;;;;;;109.72;24.23;;;;;;;;;;4993703;28;20222;-70
2024/03/07 07:27:23;;;;;;;116.18;25.05;;;;;;;;;;4993596;28;20220;-70
2024/03/07 07:29:50;;;;;;;104.60;24.08;;;;;;;;;;4993746;28;20202;-70
2024/03/07 07:32:17;;;;;;;103.55;27.48;;;;;;;;;;4993398;28;20695;-70
2024/03/07 07:34:44;;;;;;;93.80;24.98;;;;;;;;;;5008153;28;20242;-70
2024/03/07 07:37:11;;;;;;;94.13;23.92;;;;;;;;;;5012848;28;20738;-70
2024/03/07 07:39:38;;;;;;;85.07;21.85;;;;;;;;;;5012811;28;20713;-70
2024/03/07 07:42:06;;;;;;;86.72;23.73;;;;;;;;;;5013032;28;20218;-70
2024/03/07 07:44:34;;;;;;;94.40;22.65;;;;;;;;;;5012920;28;20224;-70
2024/03/07 07:47:01;;;;;;;94.88;24.65;;;;;;;;;;5012505;28;20321;-69
2024/03/07 07:49:28;;;;;;;107.40;23.77;;;;;;;;;;5013145;28;20299;-69
2024/03/07 07:51:56;;;;;;;99.50;23.67;;;;;;;;;;5012919;28;20717;-69
2024/03/07 07:54:24;;;;;;;93.18;23.63;;;;;;;;;;5012170;28;20207;-69
2024/03/07 07:56:52;;;;;;;143.63;27.45;;;;;;;;;;5012586;28;20238;-69
2024/03/07 07:59:19;;;;;;;87.10;22.00;;;;;;;;;;5012498;28;20230;-68
2024/03/07 08:01:47;;;;;;;91.85;24.75;;;;;;;;;;5006580;28;20217;-69
2024/03/07 08:04:14;;;;;;;83.53;22.05;;;;;;;;;;4993324;28;20306;-69
2024/03/07 08:06:43;;;;;;;87.45;24.55;;;;;;;;;;4993034;28;20235;-70
2024/03/07 08:09:10;;;;;;;85.93;24.77;;;;;;;;;;5002305;28;20660;-69
2024/03/07 08:11:38;;;;;;;88.78;25.40;;;;;;;;;;5007334;28;20213;-69
2024/03/07 08:14:06;;;;;;;85.57;23.00;;;;;;;;;;4992744;28;20208;-69
2024/03/07 08:16:33;;;;;;;86.13;24.30;;;;;;;;;;4992681;28;20250;-69
2024/03/07 08:19:03;;;;;;;90.28;24.08;;;;;;;;;;4992770;28;20267;-69
2024/03/07 08:21:32;;;;;;;83.10;23.58;;;;;;;;;;4985591;28;20650;-69
2024/03/07 08:23:59;;;;;;;83.87;25.30;;;;;;;;;;4992649;28;20207;-69
2024/03/07 08:26:26;;;;;;;83.88;24.73;;;;;;;;;;4992692;28;20517;-69
2024/03/07 08:28:53;;;;;;;84.78;24.95;;;;;;;;;;4992695;28;20213;-69
2024/03/07 08:31:21;;;;;;;81.88;21.90;;;;;;;;;;4992576;28;20211;-69
2024/03/07 08:33:48;;;;;;;82.15;21.90;;;;;;;;;;4992778;28;20208;-69
2024/03/07 08:36:16;;;;;;;90.43;24.40;;;;;;;;;;4992281;28;20234;-69
2024/03/07 08:38:46;;;;;;;84.37;24.40;;;;;;;;;;4992283;28;20682;-69
2024/03/07 08:41:13;;;;;;;86.50;23.27;;;;;;;;;;4992092;28;20451;-70
2024/03/07 08:43:40;;;;;;;87.00;25.23;;;;;;;;;;4992541;28;20829;-70
2024/03/07 08:46:08;;;;;;;85.53;23.10;;;;;;;;;;4992154;28;20315;-70
2024/03/07 08:48:35;;;;;;;84.57;23.93;;;;;;;;;;4992472;28;20496;-70
2024/03/07 08:51:02;;;;;;;84.33;23.80;;;;;;;;;;4992175;28;20451;-70
2024/03/07 08:53:31;;;;;;;81.33;21.23;;;;;;;;;;4992130;28;20448;-70
2024/03/07 08:55:58;;;;;;;84.00;21.13;;;;;;;;;;4992235;28;20482;-69
2024/03/07 08:58:25;;;;;;;82.90;22.47;;;;;;;;;;4992021;28;20490;-69
2024/03/07 09:00:52;;;;;;;80.13;20.73;;;;;;;;;;4992040;28;20491;-69
2024/03/07 09:03:21;;;;;;;82.97;21.67;;;;;;;;;;4992019;28;20455;-70
2024/03/07 09:05:50;;;;;;;82.67;22.33;;;;;;;;;;4991025;28;20451;-70
2024/03/07 09:08:17;;;;;;;82.20;21.07;;;;;;;;;;4991833;28;20816;-70
2024/03/07 09:10:46;;;;;;;82.27;20.60;;;;;;;;;;4992254;28;20542;-70
2024/03/07 09:13:13;;;;;;;78.67;20.63;;;;;;;;;;4992075;28;20451;-70
2024/03/07 09:15:40;;;;;;;78.70;20.37;;;;;;;;;;4991845;28;20542;-70
2024/03/07 09:18:08;;;;;;;77.87;19.67;;;;;;;;;;4992060;28;20852;-70
2024/03/07 09:20:36;;;;;;;80.20;20.57;;;;;;;;;;4991714;28;20516;-70
2024/03/07 09:23:03;;;;;;;80.33;20.83;;;;;;;;;;4991896;28;20459;-70
2024/03/07 09:25:32;;;;;;;74.30;17.83;;;;;;;;;;4992034;28;20865;-70
2024/03/07 09:28:01;;;;;;;77.70;19.97;;;;;;;;;;4992135;28;20467;-70
2024/03/07 09:30:28;;;;;;;78.43;18.63;;;;;;;;;;4991862;28;20433;-70
2024/03/07 09:32:55;;;;;;;74.90;19.10;;;;;;;;;;4991892;28;20449;-70
2024/03/07 09:35:23;;;;;;;75.80;19.00;;;;;;;;;;4991569;28;20448;-70
2024/03/07 09:37:50;;;;;;;77.67;19.43;;;;;;;;;;4992081;28;20558;-70
2024/03/07 09:40:17;;;;;;;76.23;18.57;;;;;;;;;;4991770;28;20492;-70
2024/03/07 09:42:47;;;;;;;80.07;19.20;;;;;;;;;;4992344;28;20551;-71
2024/03/07 09:45:17;;;;;;;80.47;21.17;;;;;;;;;;5009174;28;20451;-71
2024/03/07 09:47:47;;;;;;;81.57;21.00;;;;;;;;;;5011313;28;20468;-71
2024/03/07 09:50:14;;;;;;;78.50;20.97;;;;;;;;;;5011444;28;20449;-71
2024/03/07 09:52:43;;;;;;;85.57;22.73;;;;;;;;;;5011426;28;20482;-70
2024/03/07 09:55:10;;;;;;;88.17;24.23;;;;;;;;;;5011291;28;20444;-70
2024/03/07 09:57:38;;;;;;;82.07;21.23;;;;;;;;;;5012151;28;20494;-70
2024/03/07 10:00:07;;;;;;;81.07;21.63;;;;;;;;;;5011528;28;20482;-72
2024/03/07 10:02:38;;;;;;;82.30;22.43;;;;;;;;;;5011926;28;20452;-71
2024/03/07 10:05:06;;;;;;;82.47;21.83;;;;;;;;;;5011361;28;20538;-71
2024/03/07 10:07:34;;;;;;;84.43;21.70;;;;;;;;;;5011650;28;20920;-70
2024/03/07 10:10:09;;;;;;;80.90;21.03;;;;;;;;;;5011268;28;20475;-70
2024/03/07 10:12:37;;;;;;;79.60;20.10;;;;;;;;;;5011445;28;20456;-70
2024/03/07 10:15:05;;;;;;;81.60;20.90;;;;;;;;;;5010973;28;20457;-70
2024/03/07 10:17:32;;;;;;;77.00;20.10;;;;;;;;;;5013381;28;20477;-71
2024/03/07 10:20:01;;;;;;;80.43;20.97;;;;;;;;;;5015083;28;20841;-71
2024/03/07 10:22:28;;;;;;;77.93;19.97;;;;;;;;;;5014521;28;21023;-71
2024/03/07 10:24:56;;;;;;;77.73;19.83;;;;;;;;;;5014538;28;20456;-71
2024/03/07 10:27:23;;;;;;;77.17;19.53;;;;;;;;;;5014346;28;20480;-71
2024/03/07 10:29:51;;;;;;;79.00;20.23;;;;;;;;;;5014826;28;20447;-71
2024/03/07 10:32:21;;;;;;;83.60;22.00;;;;;;;;;;5014379;28;20446;-70
2024/03/07 10:34:48;;;;;;;76.07;19.20;;;;;;;;;;5014595;28;20451;-70
2024/03/07 10:37:17;;;;;;;77.03;20.37;;;;;;;;;;4996607;28;20926;-69
2024/03/07 10:39:45;;;;;;;76.40;19.93;;;;;;;;;;5008129;28;20489;-69
2024/03/07 10:42:15;;;;;;;75.60;19.20;;;;;;;;;;5014359;28;20827;-68
2024/03/07 10:44:45;;;;;;;77.50;20.67;;;;;;;;;;5014313;28;20814;-70
2024/03/07 10:47:15;;;;;;;78.07;21.07;;;;;;;;;;5013902;28;20476;-70
2024/03/07 10:49:47;;;;;;;78.27;20.33;;;;;;;;;;5014065;28;20442;-69
2024/03/07 10:52:19;;;;;;;80.70;20.10;;;;;;;;;;5005125;28;20452;-68
2024/03/07 10:54:51;;;;;;;77.77;20.00;;;;;;;;;;4994436;28;20455;-70
2024/03/07 10:57:23;;;;;;;74.40;18.70;;;;;;;;;;4994463;28;20479;-70
2024/03/07 10:59:51;;;;;;;77.53;20.57;;;;;;;;;;4994342;28;20490;-70
2024/03/07 11:02:24;;;;;;;80.10;20.73;;;;;;;;;;4994154;28;20739;-70
2024/03/07 11:04:52;;;;;;;77.30;20.83;;;;;;;;;;4994073;28;20480;-70
2024/03/07 11:07:20;;;;;;;81.10;20.10;;;;;;;;;;4994283;28;20815;-70
2024/03/07 11:09:48;;;;;;;78.90;21.30;;;;;;;;;;4994077;28;20514;-70
2024/03/07 11:12:16;;;;;;;78.87;20.27;;;;;;;;;;4994287;28;20451;-70
2024/03/07 11:14:43;;;;;;;79.23;20.03;;;;;;;;;;4994029;28;20776;-70
2024/03/07 11:17:13;;;;;;;77.23;19.63;;;;;;;;;;4993611;28;20474;-70
2024/03/07 11:19:40;;;;;;;78.93;19.80;;;;;;;;;;4993704;28;20455;-70
2024/03/07 11:22:15;;;;;;;81.90;21.50;;;;;;;;;;4992740;28;20459;-70
2024/03/07 11:24:43;;;;;;;80.60;21.30;;;;;;;;;;4987408;28;20454;-70
2024/03/07 11:27:13;;;;;;;81.00;19.10;;;;;;;;;;5001217;28;20562;-70
2024/03/07 11:29:42;;;;;;;76.53;19.80;;;;;;;;;;5003138;28;20448;-71
2024/03/07 11:32:11;;;;;;;77.50;19.53;;;;;;;;;;4996740;28;20455;-70
2024/03/07 11:34:41;;;;;;;78.87;20.67;;;;;;;;;;4993882;28;20455;-69
2024/03/07 11:37:17;;;;;;;76.60;21.07;;;;;;;;;;5000971;28;20483;-69
2024/03/07 11:39:44;;;;;;;79.30;19.87;;;;;;;;;;4999494;28;20825;-70
2024/03/07 11:42:21;;;;;;;76.00;19.90;;;;;;;;;;5007893;28;20538;-70
2024/03/07 11:44:48;;;;;;;77.30;21.57;;;;;;;;;;4996157;28;20533;-70
2024/03/07 11:47:16;;;;;;;78.73;21.10;;;;;;;;;;5001301;28;20471;-71
2024/03/07 11:49:43;;;;;;;79.90;21.50;;;;;;;;;;4993398;28;20868;-71
2024/03/07 11:52:13;;;;;;;77.47;20.97;;;;;;;;;;4993627;28;20452;-71
2024/03/07 11:54:45;;;;;;;80.50;23.10;;;;;;;;;;4993197;28;20479;-71
2024/03/07 11:57:14;;;;;;;80.73;21.17;;;;;;;;;;5000928;28;20997;-71
2024/03/07 11:59:45;;;;;;;79.30;20.03;;;;;;;;;;5001184;28;20451;-71
2024/03/07 12:02:12;;;;;;;89.40;21.70;;;;;;;;;;4993249;28;20451;-71
2024/03/07 12:04:41;;;;;;;81.10;22.00;;;;;;;;;;4993033;28;20453;-72
2024/03/07 12:07:10;;;;;;;78.60;21.63;;;;;;;;;;4992697;28;20869;-71
2024/03/07 12:09:37;;;;;;;86.20;24.00;;;;;;;;;;4993153;28;20462;-70
2024/03/07 12:12:04;;;;;;;77.87;22.27;;;;;;;;;;4993102;28;20469;-70
2024/03/07 12:14:34;;;;;;;80.67;21.47;;;;;;;;;;4995333;28;20454;-70
2024/03/07 12:17:01;;;;;;;81.10;21.63;;;;;;;;;;4997315;28;20471;-70
2024/03/07 12:19:28;;;;;;;80.33;22.13;;;;;;;;;;4992730;28;20456;-70
2024/03/07 12:21:58;;;;;;;78.87;23.50;;;;;;;;;;4992678;28;20500;-70
2024/03/07 12:24:25;;;;;;;82.37;22.73;;;;;;;;;;4992818;28;20474;-70
2024/03/07 12:26:54;;;;;;;79.80;21.40;;;;;;;;;;4992603;28;20553;-70
2024/03/07 12:29:27;;;;;;;80.40;20.30;;;;;;;;;;4993757;28;20456;-70
2024/03/07 12:31:55;;;;;;;80.33;22.10;;;;;;;;;;5009622;28;20450;-70
2024/03/07 12:34:26;;;;;;;85.87;23.70;;;;;;;;;;5005885;28;20498;-70
2024/03/07 12:36:56;;;;;;;84.13;22.00;;;;;;;;;;4991428;28;20501;-70
2024/03/07 12:39:25;;;;;;;78.47;22.63;;;;;;;;;;4993361;28;20525;-70
2024/03/07 12:41:54;;;;;;;80.97;21.77;;;;;;;;;;4998033;28;20491;-70
2024/03/07 12:44:21;;;;;;;77.80;19.87;;;;;;;;;;5000075;28;20463;-70
2024/03/07 12:46:48;;;;;;;81.23;21.87;;;;;;;;;;4996736;28;20886;-70
2024/03/07 12:49:17;;;;;;;78.60;21.57;;;;;;;;;;5000588;28;20465;-70
2024/03/07 12:51:44;;;;;;;79.73;20.57;;;;;;;;;;4992461;28;20810;-70
2024/03/07 12:54:11;;;;;;;78.30;20.67;;;;;;;;;;4992308;28;20463;-70
2024/03/07 12:56:39;;;;;;;77.30;20.80;;;;;;;;;;4999985;28;20470;-70
2024/03/07 12:59:08;;;;;;;77.43;20.07;;;;;;;;;;5000229;28;20541;-70
2024/03/07 13:01:38;;;;;;;77.17;19.93;;;;;;;;;;4994781;28;20491;-70
2024/03/07 13:04:07;;;;;;;82.00;19.73;;;;;;;;;;5011825;28;20456;-70
2024/03/07 13:06:36;;;;;;;77.30;20.20;;;;;;;;;;5009015;28;20577;-69
2024/03/07 13:09:03;;;;;;;81.50;19.63;;;;;;;;;;4992197;28;20454;-70
2024/03/07 13:11:32;;;;;;;77.87;18.97;;;;;;;;;;5002361;28;20453;-70
2024/03/07 13:13:59;;;;;;;78.10;20.90;;;;;;;;;;4997575;28;20494;-70
2024/03/07 13:16:27;;;;;;;80.93;20.77;;;;;;;;;;5000015;28;21004;-70
2024/03/07 13:18:54;;;;;;;80.47;22.03;;;;;;;;;;4991975;28;20461;-70
2024/03/07 13:21:22;;;;;;;82.80;22.27;;;;;;;;;;5001029;28;20579;-70
2024/03/07 13:23:51;;;;;;;81.00;22.47;;;;;;;;;;5006929;28;20949;-70
2024/03/07 13:26:23;;;;;;;82.87;23.17;;;;;;;;;;4991963;28;20474;-70
2024/03/07 13:28:51;;;;;;;80.57;21.07;;;;;;;;;;4992197;28;20559;-70
2024/03/07 13:31:18;;;;;;;84.50;23.00;;;;;;;;;;4992054;28;20454;-70
2024/03/07 13:33:45;;;;;;;79.37;21.73;;;;;;;;;;4991801;28;20452;-70
2024/03/07 13:36:14;;;;;;;82.20;23.50;;;;;;;;;;4999200;28;20470;-70
2024/03/07 13:38:41;;;;;;;82.00;22.63;;;;;;;;;;5000131;28;20453;-70
2024/03/07 13:41:11;;;;;;;81.90;22.60;;;;;;;;;;4991573;28;20488;-70
2024/03/07 13:43:38;;;;;;;84.13;22.90;;;;;;;;;;5011221;28;20450;-70
2024/03/07 13:46:06;;;;;;;85.17;25.07;;;;;;;;;;5004684;28;20453;-70
2024/03/07 13:48:36;;;;;;;80.83;22.60;;;;;;;;;;5002307;28;20514;-70
2024/03/07 13:51:07;;;;;;;81.17;21.37;;;;;;;;;;5011355;28;20802;-70
2024/03/07 13:53:46;;;;;;;85.20;24.03;;;;;;;;;;5014815;28;20448;-70
2024/03/07 13:56:44;;;;;;;83.17;22.10;;;;;;;;;;5007531;28;20504;-70
2024/03/07 13:59:23;;;;;;;83.90;21.50;;;;;;;;;;4916273;29;20469;-70
2024/03/07 14:01:58;;;;;;;82.10;22.73;;;;;;;;;;4979446;28;20493;-70
2024/03/07 14:04:39;;;;;;;81.03;22.70;;;;;;;;;;5003912;28;20460;-70
2024/03/07 14:07:15;;;;;;;84.00;23.23;;;;;;;;;;4995347;28;20469;-70
2024/03/07 14:09:47;;;;;;;81.30;22.87;;;;;;;;;;4995235;28;20461;-70
2024/03/07 14:12:34;;;;;;;82.70;22.30;;;;;;;;;;4995293;28;20458;-70
2024/03/07 14:15:16;;;;;;;79.23;20.47;;;;;;;;;;4983325;28;20865;-71
2024/03/07 14:18:01;;;;;;;81.07;20.77;;;;;;;;;;4995155;28;20478;-71
2024/03/07 14:20:52;;;;;;;84.10;22.60;;;;;;;;;;4996317;28;20450;-71
2024/03/07 14:23:25;;;;;;;80.70;20.83;;;;;;;;;;5014638;28;20972;-71
2024/03/07 14:25:57;;;;;;;80.50;21.20;;;;;;;;;;5014498;28;20459;-70